Station: Portable Rfsnsw15  

  Atmospheric Gas Attenuation - ITU Rec 676-11   ----------------- dB/100km -----------------
Date Time Temp RH % AH g/m3 Dew Point Wind Direction Speed kph Gust kph Barometer mB Rainfall Since 9am 24GHz 47GHz 76GHz 122GHz 134GHz 241GHz
08/05 12:20 21 28 5.13 1.8 7 11 1013.1 0 12.0 19.1 24.6 63.8 50.8 172.3
08/05 12:10 20.8 28 5.07 1.9 7 9 1013.1 0 11.9 19.1 24.4 63.5 50.3 170.5
08/05 12:00 20.6 26 4.65 0.5 7 11 1013.1 0 11.0 18.6 23.2 60.1 46.0 155.4
08/05 11:50 20.1 30 5.21 2 6 7 1013.1 0 12.2 19.4 25.1 65.2 52.2 177.1
08/05 11:40 19.8 28 4.78 0.8 7 11 1013.1 0 11.3 18.9 23.8 61.8 47.8 161.7
08/05 11:30 20.1 27 4.69 0.8 6 9 1013.1 0 11.1 18.7 23.4 60.8 46.7 157.8
08/05 11:20 19.9 29 4.98 1.3 6 9 1013.1 0 11.7 19.1 24.4 63.4 49.9 168.9
08/05 11:10 19.5 27 4.53 0.4 9 13 1013.1 0 10.8 18.6 23.1 59.9 45.4 153.1
08/05 11:00 19.7 29 4.92 1.4 9 13 1013.1 0 11.6 19.1 24.3 63.0 49.4 167.1
08/05 10:50 19.8 25 4.27 -0.4 4 6 1013.1 0 10.2 18.2 22.2 57.5 42.5 143.0
08/05 10:40 19.4 25 4.17 -0.8 6 9 1013.1 0 10.0 18.2 22.0 56.9 41.7 140.1
08/05 10:30 18.9 27 4.37 -0.4 4 7 1013.1 0 10.5 18.5 22.7 58.9 44.0 148.2
08/05 10:20 19.1 25 4.1 -1.3 6 9 1013.1 0 9.9 18.2 21.9 56.5 41.1 138.0
08/05 10:10 18.7 26 4.16 -0.8 6 7 1013.1 0 10.0 18.3 22.1 57.3 41.9 140.9
08/05 10:00 18.3 27 4.22 -0.8 4 6 1013.1 0 10.2 18.5 22.4 58.1 42.8 143.8
08/05 09:50 17.5 27 4.03 -1.4 6 7 1013.1 0 9.8 18.4 22.0 57.0 41.2 138.1
08/05 09:40 17 26 3.76 -2.5 7 9 1013.1 0 9.2 18.1 21.3 55.1 38.6 128.9
08/05 09:30 16.6 27 3.81 -2.5 7 9 1013.1 0 9.4 18.3 21.6 55.8 39.3 131.4
08/05 09:20 16.6 29 4.1 -1.5 4 7 1013.1 0 10.0 18.6 22.5 58.3 42.4 142.2
08/05 09:10 16.1 27 3.7 -2.8 6 7 1013.1 0 9.1 18.2 21.4 55.2 38.4 128.1
08/05 09:00 15.8 31 4.17 -1.1 6 7 1013.1 0 10.1 18.9 23.0 59.4 43.6 146.2
08/05 08:50 15.5 29 3.83 -2.3 6 9 1013.1 0 9.4 18.5 21.9 56.7 40.1 133.9
08/05 08:40 15.1 30 3.87 -2.2 6 9 1013.1 0 9.5 18.6 22.2 57.3 40.7 136.1
08/05 08:30 14.8 31 3.93 -1.9 7 9 1013.1 0 9.7 18.8 22.4 58.1 41.5 138.8
08/05 08:20 14.8 32 4.05 -1.8 7 9 1013.1 0 9.9 18.9 22.8 59.1 42.8 143.4
08/05 08:10 14.6 31 3.88 -2.3 6 7 1013.1 0 9.6 18.8 22.3 57.8 41.0 137.3
08/05 08:00 14.4 31 3.83 -2.3 4 7 1013.1 0 9.5 18.7 22.2 57.5 40.6 135.7
08/05 07:50 13.7 30 3.55 -3.5 7 9 1013.1 0 8.9 18.5 21.5 55.5 37.9 126.1
08/05 07:40 13.4 32 3.72 -2.9 11 15 1013.1 0 9.3 18.8 22.1 57.2 39.9 133.1
08/05 07:30 12.6 32 3.54 -3.5 11 20 1013.1 0 8.9 18.7 21.7 56.2 38.3 127.4
08/05 07:20 11.8 36 3.79 -2.7 7 15 1013.1 0 9.4 19.2 22.8 59.0 41.5 138.4
08/05 07:10 11.6 38 3.95 -2.2 6 9 1013.1 0 9.8 19.5 23.4 60.5 43.4 145.1
08/05 07:00 10.9 34 3.38 -4.3 11 15 1013.1 0 8.6 18.8 21.7 55.9 37.4 123.8
08/05 06:50 9.1 49 4.35 -1 7 9 1013.1 0 10.7 20.6 25.5 66.2 49.4 166.1
08/05 06:40 8.8 46 4.01 -2.2 4 6 1013.1 0 10.0 20.1 24.4 63.2 45.6 152.6
08/05 06:30 8 45 3.72 -3.1 2 4 1013.1 0 9.4 19.9 23.6 61.1 42.7 142.1
08/05 06:20 8.2 52 4.36 -0.9 2 4 1013.1 0 10.8 20.8 25.8 67.1 50.1 168.4
08/05 06:10 8.2 46 3.85 -2.6 2 2 1013.1 0 9.7 20.0 24.0 62.2 44.1 147.1
08/05 06:00 8.6 53 4.56 -0.4 4 7 1013.1 0 11.2 21.0 26.4 68.7 52.3 176.0
08/05 05:50 8.6 47 4.04 -1.9 4 6 1013.1 0 10.1 20.2 24.6 63.7 46.1 154.2
08/05 05:40 9.8 48 4.45 -0.6 6 7 1013.1 0 10.9 20.6 25.7 66.6 50.2 168.8
08/05 05:30 10.3 37 3.54 -3.5 6 7 1013.1 0 9.0 19.2 22.4 57.8 39.4 131.0
08/05 05:20 10.3 37 3.54 -3.5 9 11 1013.1 0 9.0 19.2 22.4 57.8 39.4 131.0
08/05 05:10 10.4 36 3.47 -3.9 6 7 1013.1 0 8.8 19.0 22.1 57.1 38.6 128.1
08/05 05:00 10.6 35 3.42 -4.1 7 9 1013.1 0 8.7 18.9 21.9 56.5 37.9 125.8
08/05 04:50 10.6 34 3.32 -4.5 4 7 1013.1 0 8.5 18.8 21.5 55.6 36.8 121.9
08/05 04:40 10.5 34 3.3 -4.8 9 11 1013.1 0 8.4 18.8 21.5 55.5 36.7 121.3
08/05 04:30 10.5 36 3.49 -3.9 7 9 1013.1 0 8.8 19.1 22.1 57.2 38.8 128.7
08/05 04:20 10.9 33 3.28 -4.5 9 11 1013.1 0 8.4 18.7 21.3 55.0 36.3 119.9
08/05 04:10 11.1 34 3.43 -4.1 15 19 1013.1 0 8.7 18.8 21.8 56.2 37.8 125.5
08/05 04:00 11.1 33 3.32 -4.4 15 19 1013.1 0 8.5 18.7 21.4 55.2 36.6 121.2
08/05 03:50 11 33 3.3 -4.4 13 17 1013.1 0 8.4 18.7 21.4 55.1 36.4 120.6
08/05 03:40 11 33 3.3 -4.4 13 17 1013.1 0 8.4 18.7 21.4 55.1 36.4 120.6
08/05 03:30 11.2 32 3.24 -4.7 13 15 1013.1 0 8.3 18.6 21.1 54.5 35.7 117.9
08/05 03:20 11 33 3.3 -4.5 15 19 1013.1 0 8.4 18.7 21.4 55.1 36.4 120.6
08/05 03:10 10.9 34 3.38 -4.2 11 19 1013.1 0 8.6 18.8 21.7 55.9 37.4 123.8
08/05 03:00 11 35 3.5 -3.9 11 17 1013.1 0 8.9 19.0 22.0 56.9 38.6 128.4
08/05 02:50 11.3 34 3.47 -3.9 11 22 1013.1 0 8.8 18.9 21.9 56.4 38.2 126.7
08/05 02:40 11.8 33 3.47 -3.7 17 20 1013.1 0 8.8 18.8 21.7 56.1 37.9 126.0
08/05 02:30 11.9 30 3.18 -4.9 15 22 1013.1 0 8.2 18.4 20.7 53.5 34.7 114.7
08/05 02:20 11.7 31 3.24 -4.7 9 17 1013.1 0 8.3 18.5 21.0 54.1 35.5 117.2
08/05 02:10 11.9 31 3.28 -4.8 11 15 1013.1 0 8.4 18.5 21.1 54.3 35.8 118.5
08/05 02:00 11.8 31 3.26 -4.6 13 19 1013.1 0 8.3 18.5 21.0 54.2 35.6 117.9
08/05 01:50 12 31 3.3 -4.6 11 13 1013.1 0 8.4 18.5 21.1 54.5 36.0 119.1
08/05 01:40 12.2 29 3.13 -5 9 11 1013.1 0 8.0 18.2 20.5 52.8 34.1 112.3
08/05 01:30 12.7 29 3.23 -4.8 13 17 1013.1 0 8.2 18.3 20.7 53.4 34.9 115.5
08/05 01:20 12.9 27 3.04 -5.5 17 20 1013.1 0 7.8 18.0 20.0 51.6 32.8 108.0
08/05 01:10 13 27 3.06 -5.6 15 19 1013.1 0 7.9 18.0 20.1 51.7 33.0 108.6
08/05 01:00 13.1 25 2.85 -6.2 13 17 1013.1 0 7.4 17.7 19.4 49.9 30.7 100.7
08/05 00:50 12.7 25 2.78 -6.6 11 19 1013.1 0 7.3 17.7 19.3 49.5 30.1 98.6
08/05 00:40 12.3 30 3.26 -4.5 4 6 1013.1 0 8.3 18.4 20.9 53.9 35.4 117.2
08/05 00:30 13.1 28 3.2 -5.1 7 9 1013.1 0 8.2 18.1 20.5 52.9 34.4 113.8
08/05 00:10 12.6 28 3.1 -5.2 13 15 1013.1 0 8.0 18.1 20.3 52.3 33.6 110.7
08/05 00:00 13.1 29 3.31 -4.6 11 13 1013.1 0 8.4 18.3 20.9 53.8 35.6 117.9
07/05 23:50 13.3 28 3.24 -4.8 13 22 1013.1 0 8.2 18.2 20.6 53.1 34.8 115.0
07/05 23:40 13.1 31 3.54 -3.6 11 13 1013.1 0 8.9 18.6 21.6 55.8 38.1 126.7
07/05 23:30 13.4 25 2.91 -5.9 9 13 1013.1 0 7.6 17.7 19.5 50.2 31.2 102.6
07/05 23:20 13.2 33 3.79 -2.6 9 11 1013.1 0 9.4 18.9 22.4 58.0 40.8 136.1
07/05 23:10 14.4 29 3.58 -3.1 7 11 1013.1 0 8.9 18.4 21.4 55.3 37.9 126.2
07/05 23:00 14.7 28 3.53 -3.7 13 19 1013.1 0 8.8 18.3 21.2 54.7 37.3 123.9
07/05 22:50 14.9 26 3.31 -4.4 11 19 1013.1 0 8.4 17.9 20.4 52.7 34.8 115.4
07/05 22:40 14.8 29 3.67 -3 9 11 1013.1 0 9.1 18.4 21.6 55.8 38.7 129.0
07/05 22:30 15 30 3.85 -2.3 13 17 1013.1 0 9.5 18.6 22.1 57.2 40.5 135.5
07/05 22:20 15.1 30 3.87 -2.4 11 17 1013.1 0 9.5 18.6 22.2 57.3 40.7 136.1
07/05 22:10 15.3 30 3.92 -2 9 15 1013.1 0 9.6 18.7 22.3 57.6 41.1 137.6
07/05 22:00 15.7 30 4.01 -1.8 11 15 1013.1 0 9.8 18.7 22.5 58.1 41.9 140.4
07/05 21:50 15.9 30 4.06 -1.6 13 19 1013.1 0 9.9 18.7 22.6 58.4 42.3 141.9
07/05 21:40 16 35 4.77 0.6 9 13 1013.1 0 11.4 19.7 24.9 64.6 50.0 168.9
07/05 21:30 16.6 32 4.52 0.1 11 13 1013.1 0 10.8 19.2 23.9 61.9 46.9 158.1
07/05 21:20 16.9 34 4.89 1.1 11 15 1013.1 0 11.6 19.6 25.0 64.9 50.7 171.7
07/05 21:10 17.1 35 5.09 1.8 9 15 1013.1 0 12.0 19.9 25.6 66.5 52.8 179.0
07/05 21:00 17.4 34 5.04 1.7 15 22 1013.1 0 11.9 19.7 25.3 65.9 52.1 176.4
07/05 20:50 17.7 40 6.03 4 9 15 1013.1 0 14.0 21.0 28.6 74.5 62.9 214.5
07/05 20:40 18.1 37 5.72 3.4 13 26 1013.1 0 13.3 20.5 27.4 71.4 59.1 201.3
07/05 20:30 18 40 6.14 4.3 7 11 1013.1 0 14.2 21.1 28.9 75.3 63.9 218.1
07/05 20:20 18.5 38 6.01 4.1 11 17 1013.1 0 13.9 20.8 28.2 73.6 62.1 211.7
07/05 20:10 18.7 37 5.92 3.9 13 19 1013.1 0 13.7 20.6 27.9 72.6 60.9 207.6
07/05 20:00 19.2 36 5.94 3.7 15 20 1013.1 0 13.7 20.6 27.8 72.4 60.8 207.1
07/05 19:50 19.2 35 5.77 3.4 13 17 1013.1 0 13.4 20.3 27.2 70.9 58.9 200.5
07/05 19:40 18.8 37 5.96 3.8 9 11 1013.1 0 13.8 20.7 28.0 72.9 61.3 208.9

Last Refresh: 08-May-2026 12:09:23

Bureau of Meteorology